PIZ25 LFMT-LSZB
Flight info
| Callsign | PIZ25 |
|---|---|
| Flight time | 1h 17m |
| Altitude | 24000 |
| Route | NG DCT MOLEN DCT MTL A6 ROMAM Z16 LTP N871 TELNO |
| Aircraft | PC12/L-SDFGRWY/S |
Departure
| Time | 2026-04-22 17:25 |
|---|---|
| Airport | Montpellier-Méditerranée Airport (LFMT) |
Arrival
| Time | 2026-04-22 18:42 |
|---|---|
| Airport | Bern Airport (LSZB) |
| Time | Latitude | Longitude | Altitude | Speed | Heading |
|---|---|---|---|---|---|
| 2026-04-22 17:09 | 43.57787 | 3.96272 | 13 ft | 0 kts | 305° |
| 2026-04-22 17:19 | 43.57825 | 3.96277 | 13 ft | 5 kts | 64° |
| 2026-04-22 17:19 | 43.57782 | 3.96394 | 13 ft | 9 kts | 107° |
| 2026-04-22 17:20 | 43.57876 | 3.96467 | 13 ft | 9 kts | 9° |
| 2026-04-22 17:20 | 43.57897 | 3.96586 | 13 ft | 10 kts | 127° |
| 2026-04-22 17:21 | 43.57855 | 3.96665 | 13 ft | 11 kts | 126° |
| 2026-04-22 17:21 | 43.57766 | 3.96834 | 13 ft | 11 kts | 124° |
| 2026-04-22 17:22 | 43.57768 | 3.97009 | 13 ft | 9 kts | 33° |
| 2026-04-22 17:22 | 43.57772 | 3.97013 | 13 ft | 0 kts | 33° |
| 2026-04-22 17:23 | 43.57871 | 3.97043 | 13 ft | 5 kts | 303° |
| 2026-04-22 17:23 | 43.57871 | 3.97042 | 13 ft | 0 kts | 303° |
| 2026-04-22 17:24 | 43.57946 | 3.96889 | 13 ft | 48 kts | 304° |
| 2026-04-22 17:24 | 43.58240 | 3.96310 | 26 ft | 93 kts | 303° |
| 2026-04-22 17:24 | 43.58595 | 3.95524 | 272 ft | 99 kts | 304° |
| 2026-04-22 17:24 | 43.58947 | 3.94663 | 568 ft | 110 kts | 298° |
| 2026-04-22 17:25 | 43.59326 | 3.93627 | 808 ft | 136 kts | 297° |
| 2026-04-22 17:25 | 43.59778 | 3.92473 | 1300 ft | 142 kts | 298° |
| 2026-04-22 17:25 | 43.60367 | 3.91153 | 1446 ft | 173 kts | 302° |
| 2026-04-22 17:25 | 43.61032 | 3.89734 | 1939 ft | 178 kts | 301° |
| 2026-04-22 17:26 | 43.61751 | 3.88317 | 2467 ft | 182 kts | 309° |
| 2026-04-22 17:26 | 43.62731 | 3.87211 | 3078 ft | 181 kts | 330° |
| 2026-04-22 17:26 | 43.63903 | 3.86663 | 3737 ft | 177 kts | 353° |
| 2026-04-22 17:26 | 43.65131 | 3.86683 | 4262 ft | 176 kts | 12° |
| 2026-04-22 17:27 | 43.66275 | 3.87184 | 4913 ft | 168 kts | 25° |
| 2026-04-22 17:27 | 43.67256 | 3.87954 | 5515 ft | 164 kts | 34° |
| 2026-04-22 17:27 | 43.68203 | 3.88939 | 5871 ft | 174 kts | 46° |
| 2026-04-22 17:27 | 43.68743 | 3.90492 | 6087 ft | 190 kts | 81° |
| 2026-04-22 17:28 | 43.68705 | 3.92248 | 6811 ft | 171 kts | 92° |
| 2026-04-22 17:28 | 43.68624 | 3.93872 | 7323 ft | 175 kts | 87° |
| 2026-04-22 17:28 | 43.68733 | 3.95664 | 7422 ft | 196 kts | 73° |
| 2026-04-22 17:28 | 43.69260 | 3.97297 | 7998 ft | 181 kts | 46° |
| 2026-04-22 17:29 | 43.70323 | 3.98131 | 8261 ft | 186 kts | 1° |
| 2026-04-22 17:29 | 43.71547 | 3.97840 | 8702 ft | 178 kts | 2° |
| 2026-04-22 17:29 | 43.72584 | 3.98738 | 9243 ft | 188 kts | 52° |
| 2026-04-22 17:29 | 43.72772 | 4.00533 | 9800 ft | 195 kts | 95° |
| 2026-04-22 17:30 | 43.72555 | 4.02388 | 10318 ft | 195 kts | 90° |
| 2026-04-22 17:30 | 43.72600 | 4.04265 | 10821 ft | 194 kts | 72° |
| 2026-04-22 17:30 | 43.73066 | 4.05984 | 11328 ft | 191 kts | 56° |
| 2026-04-22 17:30 | 43.73692 | 4.07584 | 11844 ft | 193 kts | 54° |
| 2026-04-22 17:31 | 43.74333 | 4.09266 | 12377 ft | 197 kts | 56° |
| 2026-04-22 17:31 | 43.74947 | 4.10952 | 12905 ft | 200 kts | 56° |
| 2026-04-22 17:31 | 43.75574 | 4.12678 | 13448 ft | 202 kts | 56° |
| 2026-04-22 17:31 | 43.76211 | 4.14426 | 13978 ft | 204 kts | 56° |
| 2026-04-22 17:32 | 43.76853 | 4.16186 | 14472 ft | 206 kts | 56° |
| 2026-04-22 17:32 | 43.77497 | 4.17954 | 14973 ft | 206 kts | 56° |
| 2026-04-22 17:32 | 43.78142 | 4.19728 | 15486 ft | 206 kts | 56° |
| 2026-04-22 17:32 | 43.78786 | 4.21496 | 16003 ft | 205 kts | 56° |
| 2026-04-22 17:33 | 43.79211 | 4.22666 | 16353 ft | 205 kts | 56° |
| 2026-04-22 17:33 | 43.80066 | 4.25017 | 17070 ft | 204 kts | 56° |
| 2026-04-22 17:33 | 43.80696 | 4.26751 | 17608 ft | 203 kts | 55° |
| 2026-04-22 17:33 | 43.81327 | 4.28490 | 18170 ft | 202 kts | 55° |
| 2026-04-22 17:34 | 43.81957 | 4.30224 | 18682 ft | 201 kts | 55° |
| 2026-04-22 17:34 | 43.82582 | 4.31948 | 19176 ft | 200 kts | 55° |
| 2026-04-22 17:34 | 43.83204 | 4.33662 | 19675 ft | 198 kts | 54° |
| 2026-04-22 17:34 | 43.83829 | 4.35382 | 20052 ft | 206 kts | 54° |
| 2026-04-22 17:35 | 43.84499 | 4.37215 | 20177 ft | 224 kts | 56° |
| 2026-04-22 17:35 | 43.85225 | 4.39198 | 20313 ft | 234 kts | 52° |
| 2026-04-22 17:35 | 43.86317 | 4.40804 | 20439 ft | 228 kts | 25° |
| 2026-04-22 17:35 | 43.87749 | 4.41723 | 20584 ft | 228 kts | 13° |
| 2026-04-22 17:36 | 43.89255 | 4.42516 | 20709 ft | 234 kts | 13° |
| 2026-04-22 17:36 | 43.90793 | 4.43334 | 20835 ft | 239 kts | 13° |
| 2026-04-22 17:36 | 43.92335 | 4.44165 | 20963 ft | 243 kts | 14° |
| 2026-04-22 17:36 | 43.93922 | 4.45021 | 21093 ft | 246 kts | 14° |
| 2026-04-22 17:37 | 43.95525 | 4.45884 | 21219 ft | 248 kts | 14° |
| 2026-04-22 17:37 | 43.97141 | 4.46753 | 21351 ft | 250 kts | 14° |
| 2026-04-22 17:37 | 43.98769 | 4.47630 | 21479 ft | 251 kts | 14° |
| 2026-04-22 17:37 | 44.00403 | 4.48509 | 21611 ft | 252 kts | 14° |
| 2026-04-22 17:38 | 44.02018 | 4.49380 | 21743 ft | 253 kts | 14° |
| 2026-04-22 17:38 | 44.03660 | 4.50265 | 21878 ft | 253 kts | 14° |
| 2026-04-22 17:38 | 44.05311 | 4.51156 | 22012 ft | 254 kts | 14° |
| 2026-04-22 17:38 | 44.06959 | 4.52038 | 22142 ft | 254 kts | 13° |
| 2026-04-22 17:39 | 44.08616 | 4.52912 | 22278 ft | 254 kts | 13° |
| 2026-04-22 17:39 | 44.10274 | 4.53788 | 22412 ft | 255 kts | 13° |
| 2026-04-22 17:39 | 44.13591 | 4.55550 | 22685 ft | 255 kts | 13° |
| 2026-04-22 17:40 | 44.15226 | 4.56420 | 22816 ft | 255 kts | 13° |
| 2026-04-22 17:40 | 44.16905 | 4.57312 | 22957 ft | 254 kts | 13° |
| 2026-04-22 17:40 | 44.18533 | 4.58179 | 23091 ft | 253 kts | 13° |
| 2026-04-22 17:40 | 44.20180 | 4.59056 | 23229 ft | 252 kts | 13° |
| 2026-04-22 17:41 | 44.21814 | 4.59925 | 23363 ft | 251 kts | 13° |
| 2026-04-22 17:41 | 44.23452 | 4.60798 | 23502 ft | 251 kts | 13° |
| 2026-04-22 17:41 | 44.25079 | 4.61666 | 23643 ft | 250 kts | 13° |
| 2026-04-22 17:41 | 44.26708 | 4.62535 | 23767 ft | 250 kts | 13° |
| 2026-04-22 17:42 | 44.28312 | 4.63391 | 23881 ft | 250 kts | 13° |
| 2026-04-22 17:42 | 44.29940 | 4.64261 | 23999 ft | 250 kts | 13° |
| 2026-04-22 17:42 | 44.31016 | 4.64836 | 24074 ft | 249 kts | 13° |
| 2026-04-22 17:42 | 44.33198 | 4.66001 | 24121 ft | 253 kts | 13° |
| 2026-04-22 17:43 | 44.34858 | 4.66888 | 24128 ft | 257 kts | 13° |
| 2026-04-22 17:43 | 44.36534 | 4.67788 | 24125 ft | 259 kts | 13° |
| 2026-04-22 17:43 | 44.38222 | 4.68694 | 24128 ft | 260 kts | 13° |
| 2026-04-22 17:43 | 44.39916 | 4.69603 | 24132 ft | 261 kts | 13° |
| 2026-04-22 17:44 | 44.41617 | 4.70515 | 24133 ft | 262 kts | 13° |
| 2026-04-22 17:44 | 44.43301 | 4.71419 | 24134 ft | 262 kts | 13° |
| 2026-04-22 17:44 | 44.45006 | 4.72336 | 24137 ft | 262 kts | 13° |
| 2026-04-22 17:44 | 44.46713 | 4.73253 | 24132 ft | 262 kts | 13° |
| 2026-04-22 17:45 | 44.48418 | 4.74171 | 24130 ft | 262 kts | 13° |
| 2026-04-22 17:45 | 44.50128 | 4.75091 | 24132 ft | 263 kts | 13° |
| 2026-04-22 17:45 | 44.51832 | 4.76008 | 24133 ft | 263 kts | 13° |
| 2026-04-22 17:45 | 44.53544 | 4.76931 | 24134 ft | 263 kts | 13° |
| 2026-04-22 17:46 | 44.55250 | 4.77854 | 24126 ft | 263 kts | 14° |
| 2026-04-22 17:46 | 44.56891 | 4.78971 | 24132 ft | 265 kts | 19° |
| 2026-04-22 17:46 | 44.58547 | 4.80137 | 24131 ft | 265 kts | 18° |
| 2026-04-22 17:46 | 44.60196 | 4.81292 | 24132 ft | 265 kts | 18° |
| 2026-04-22 17:47 | 44.61844 | 4.82454 | 24129 ft | 265 kts | 19° |
| 2026-04-22 17:47 | 44.63493 | 4.83621 | 24131 ft | 265 kts | 19° |
| 2026-04-22 17:47 | 44.65142 | 4.84783 | 24135 ft | 265 kts | 18° |
| 2026-04-22 17:47 | 44.66789 | 4.85934 | 24138 ft | 265 kts | 18° |
| 2026-04-22 17:48 | 44.67885 | 4.86698 | 24128 ft | 265 kts | 18° |
| 2026-04-22 17:48 | 44.70088 | 4.88278 | 24137 ft | 264 kts | 19° |
| 2026-04-22 17:48 | 44.71704 | 4.89438 | 24137 ft | 264 kts | 19° |
| 2026-04-22 17:48 | 44.73344 | 4.90595 | 24137 ft | 263 kts | 18° |
| 2026-04-22 17:49 | 44.74991 | 4.91729 | 24135 ft | 263 kts | 18° |
| 2026-04-22 17:49 | 44.76641 | 4.92863 | 24137 ft | 263 kts | 18° |
| 2026-04-22 17:49 | 44.78287 | 4.94006 | 24138 ft | 263 kts | 18° |
| 2026-04-22 17:49 | 44.79931 | 4.95150 | 24138 ft | 263 kts | 18° |
| 2026-04-22 17:50 | 44.81575 | 4.96292 | 24139 ft | 263 kts | 18° |
| 2026-04-22 17:50 | 44.83218 | 4.97433 | 24138 ft | 263 kts | 18° |
| 2026-04-22 17:50 | 44.84857 | 4.98573 | 24136 ft | 263 kts | 18° |
| 2026-04-22 17:50 | 44.86502 | 4.99718 | 24141 ft | 263 kts | 18° |
| 2026-04-22 17:51 | 44.88126 | 5.00849 | 24136 ft | 263 kts | 18° |
| 2026-04-22 17:51 | 44.89768 | 5.01993 | 24142 ft | 263 kts | 18° |
| 2026-04-22 17:51 | 44.91407 | 5.03137 | 24140 ft | 263 kts | 18° |
| 2026-04-22 17:51 | 44.93050 | 5.04283 | 24139 ft | 263 kts | 18° |
| 2026-04-22 17:52 | 44.94695 | 5.05431 | 24142 ft | 263 kts | 18° |
| 2026-04-22 17:52 | 44.96339 | 5.06580 | 24142 ft | 263 kts | 18° |
| 2026-04-22 17:52 | 44.97985 | 5.07731 | 24139 ft | 264 kts | 18° |
| 2026-04-22 17:52 | 44.99631 | 5.08882 | 24136 ft | 264 kts | 18° |
| 2026-04-22 17:53 | 45.01277 | 5.10034 | 24134 ft | 264 kts | 18° |
| 2026-04-22 17:53 | 45.02926 | 5.11189 | 24136 ft | 264 kts | 18° |
| 2026-04-22 17:53 | 45.04555 | 5.12331 | 24133 ft | 264 kts | 18° |
| 2026-04-22 17:53 | 45.06202 | 5.13486 | 24132 ft | 264 kts | 18° |
| 2026-04-22 17:54 | 45.07842 | 5.14638 | 24130 ft | 264 kts | 18° |
| 2026-04-22 17:54 | 45.09489 | 5.15794 | 24132 ft | 263 kts | 18° |
| 2026-04-22 17:54 | 45.10579 | 5.16560 | 24125 ft | 263 kts | 18° |
| 2026-04-22 17:54 | 45.12757 | 5.18102 | 24123 ft | 263 kts | 19° |
| 2026-04-22 17:55 | 45.13869 | 5.18893 | 24114 ft | 263 kts | 19° |
| 2026-04-22 17:55 | 45.15491 | 5.20044 | 24115 ft | 263 kts | 19° |
| 2026-04-22 17:55 | 45.17127 | 5.21205 | 24114 ft | 263 kts | 19° |
| 2026-04-22 17:55 | 45.18763 | 5.22366 | 24111 ft | 263 kts | 19° |
| 2026-04-22 17:56 | 45.20395 | 5.23526 | 24110 ft | 262 kts | 19° |
| 2026-04-22 17:56 | 45.22027 | 5.24686 | 24112 ft | 262 kts | 19° |
| 2026-04-22 17:56 | 45.23653 | 5.25843 | 24109 ft | 262 kts | 19° |
| 2026-04-22 17:56 | 45.25284 | 5.27004 | 24111 ft | 262 kts | 19° |
| 2026-04-22 17:57 | 45.26909 | 5.28162 | 24112 ft | 261 kts | 19° |
| 2026-04-22 17:57 | 45.28519 | 5.29310 | 24110 ft | 261 kts | 19° |
| 2026-04-22 17:57 | 45.30142 | 5.30467 | 24110 ft | 261 kts | 19° |
| 2026-04-22 17:57 | 45.31765 | 5.31626 | 24111 ft | 261 kts | 19° |
| 2026-04-22 17:58 | 45.33393 | 5.32789 | 24110 ft | 261 kts | 19° |
| 2026-04-22 17:58 | 45.35017 | 5.33950 | 24110 ft | 261 kts | 19° |
| 2026-04-22 17:58 | 45.36633 | 5.35106 | 24111 ft | 260 kts | 19° |
| 2026-04-22 17:58 | 45.38246 | 5.36260 | 24111 ft | 259 kts | 19° |
| 2026-04-22 17:59 | 45.39862 | 5.37417 | 24112 ft | 259 kts | 19° |
| 2026-04-22 17:59 | 45.41451 | 5.38556 | 24111 ft | 259 kts | 19° |
| 2026-04-22 17:59 | 45.43080 | 5.39724 | 24110 ft | 259 kts | 18° |
| 2026-04-22 17:59 | 45.44668 | 5.40863 | 24109 ft | 258 kts | 18° |
| 2026-04-22 18:00 | 45.46274 | 5.42016 | 24110 ft | 258 kts | 18° |
| 2026-04-22 18:00 | 45.47876 | 5.43167 | 24111 ft | 258 kts | 18° |
| 2026-04-22 18:00 | 45.49410 | 5.44515 | 24101 ft | 264 kts | 30° |
| 2026-04-22 18:00 | 45.50795 | 5.46256 | 24103 ft | 266 kts | 33° |
| 2026-04-22 18:01 | 45.52158 | 5.48034 | 24105 ft | 266 kts | 33° |
| 2026-04-22 18:01 | 45.53539 | 5.49801 | 24109 ft | 266 kts | 32° |
| 2026-04-22 18:01 | 45.54925 | 5.51553 | 24110 ft | 266 kts | 32° |
| 2026-04-22 18:01 | 45.56295 | 5.53291 | 24111 ft | 266 kts | 32° |
| 2026-04-22 18:02 | 45.57678 | 5.55062 | 24111 ft | 267 kts | 32° |
| 2026-04-22 18:02 | 45.59058 | 5.56838 | 24109 ft | 267 kts | 32° |
| 2026-04-22 18:02 | 45.60442 | 5.58615 | 24109 ft | 267 kts | 32° |
| 2026-04-22 18:02 | 45.61825 | 5.60390 | 24109 ft | 267 kts | 32° |
| 2026-04-22 18:03 | 45.63211 | 5.62170 | 24113 ft | 267 kts | 32° |
| 2026-04-22 18:03 | 45.64582 | 5.63931 | 24108 ft | 268 kts | 32° |
| 2026-04-22 18:03 | 45.65966 | 5.65714 | 24112 ft | 268 kts | 32° |
| 2026-04-22 18:03 | 45.67356 | 5.67502 | 24106 ft | 268 kts | 32° |
| 2026-04-22 18:04 | 45.68744 | 5.69278 | 24109 ft | 267 kts | 32° |
| 2026-04-22 18:04 | 45.70132 | 5.71053 | 24108 ft | 267 kts | 32° |
| 2026-04-22 18:04 | 45.71498 | 5.72802 | 24103 ft | 267 kts | 32° |
| 2026-04-22 18:04 | 45.72880 | 5.74577 | 24110 ft | 267 kts | 32° |
| 2026-04-22 18:05 | 45.74262 | 5.76350 | 24114 ft | 267 kts | 32° |
| 2026-04-22 18:05 | 45.75646 | 5.78125 | 24113 ft | 267 kts | 31° |
| 2026-04-22 18:05 | 45.77029 | 5.79902 | 24105 ft | 267 kts | 31° |
| 2026-04-22 18:05 | 45.78409 | 5.81677 | 24109 ft | 265 kts | 31° |
| 2026-04-22 18:06 | 45.79782 | 5.83443 | 24115 ft | 265 kts | 31° |
| 2026-04-22 18:06 | 45.81161 | 5.85216 | 24114 ft | 266 kts | 31° |
| 2026-04-22 18:06 | 45.82524 | 5.86970 | 24112 ft | 267 kts | 31° |
| 2026-04-22 18:06 | 45.83910 | 5.88758 | 24131 ft | 267 kts | 31° |
| 2026-04-22 18:07 | 45.85291 | 5.90540 | 24135 ft | 267 kts | 31° |
| 2026-04-22 18:07 | 45.86675 | 5.92325 | 24135 ft | 267 kts | 31° |
| 2026-04-22 18:07 | 45.88054 | 5.94107 | 24137 ft | 267 kts | 31° |
| 2026-04-22 18:07 | 45.89434 | 5.95890 | 24140 ft | 267 kts | 31° |
| 2026-04-22 18:08 | 45.90817 | 5.97677 | 24135 ft | 267 kts | 31° |
| 2026-04-22 18:08 | 45.92195 | 5.99461 | 24135 ft | 267 kts | 31° |
| 2026-04-22 18:08 | 45.93574 | 6.01249 | 24135 ft | 267 kts | 30° |
| 2026-04-22 18:08 | 45.94950 | 6.03031 | 24137 ft | 266 kts | 31° |
| 2026-04-22 18:09 | 45.96326 | 6.04815 | 24140 ft | 267 kts | 30° |
| 2026-04-22 18:09 | 45.97687 | 6.06579 | 24137 ft | 267 kts | 30° |
| 2026-04-22 18:09 | 45.99071 | 6.08377 | 24139 ft | 267 kts | 30° |
| 2026-04-22 18:09 | 46.00451 | 6.10172 | 24139 ft | 268 kts | 30° |
| 2026-04-22 18:10 | 46.01830 | 6.11965 | 24139 ft | 268 kts | 30° |
| 2026-04-22 18:10 | 46.03210 | 6.13762 | 24137 ft | 267 kts | 30° |
| 2026-04-22 18:10 | 46.04594 | 6.15564 | 24136 ft | 267 kts | 30° |
| 2026-04-22 18:10 | 46.05980 | 6.17369 | 24135 ft | 268 kts | 30° |
| 2026-04-22 18:11 | 46.07345 | 6.19150 | 24137 ft | 268 kts | 30° |
| 2026-04-22 18:11 | 46.08727 | 6.20954 | 24131 ft | 267 kts | 30° |
| 2026-04-22 18:11 | 46.10102 | 6.22751 | 24136 ft | 267 kts | 30° |
| 2026-04-22 18:11 | 46.11481 | 6.24551 | 24133 ft | 268 kts | 30° |
| 2026-04-22 18:12 | 46.12862 | 6.26356 | 24136 ft | 268 kts | 30° |
| 2026-04-22 18:12 | 46.14242 | 6.28163 | 24133 ft | 267 kts | 30° |
| 2026-04-22 18:12 | 46.15157 | 6.29363 | 24137 ft | 267 kts | 30° |
| 2026-04-22 18:12 | 46.16998 | 6.31775 | 24138 ft | 267 kts | 30° |
| 2026-04-22 18:13 | 46.18375 | 6.33580 | 24133 ft | 267 kts | 30° |
| 2026-04-22 18:13 | 46.19753 | 6.35388 | 24131 ft | 267 kts | 30° |
| 2026-04-22 18:13 | 46.21131 | 6.37198 | 24137 ft | 268 kts | 30° |
| 2026-04-22 18:13 | 46.22498 | 6.38992 | 24125 ft | 270 kts | 31° |
| 2026-04-22 18:14 | 46.23889 | 6.40824 | 24130 ft | 270 kts | 31° |
| 2026-04-22 18:14 | 46.25282 | 6.42660 | 24132 ft | 270 kts | 31° |
| 2026-04-22 18:14 | 46.26669 | 6.44487 | 24131 ft | 269 kts | 30° |
| 2026-04-22 18:14 | 46.28057 | 6.46314 | 24133 ft | 270 kts | 31° |
| 2026-04-22 18:15 | 46.29443 | 6.48142 | 24131 ft | 270 kts | 31° |
| 2026-04-22 18:15 | 46.30829 | 6.49972 | 24129 ft | 270 kts | 31° |
| 2026-04-22 18:15 | 46.32199 | 6.51783 | 24133 ft | 269 kts | 31° |
| 2026-04-22 18:15 | 46.33584 | 6.53613 | 24134 ft | 269 kts | 31° |
| 2026-04-22 18:16 | 46.34974 | 6.55452 | 24086 ft | 270 kts | 31° |
| 2026-04-22 18:16 | 46.36381 | 6.57311 | 23750 ft | 273 kts | 32° |
| 2026-04-22 18:16 | 46.37778 | 6.59167 | 23349 ft | 273 kts | 32° |
| 2026-04-22 18:16 | 46.39155 | 6.60997 | 22942 ft | 270 kts | 33° |
| 2026-04-22 18:17 | 46.40529 | 6.62823 | 22538 ft | 266 kts | 33° |
| 2026-04-22 18:17 | 46.41878 | 6.64615 | 22141 ft | 260 kts | 34° |
| 2026-04-22 18:17 | 46.43198 | 6.66369 | 21743 ft | 254 kts | 34° |
| 2026-04-22 18:17 | 46.44479 | 6.68117 | 21351 ft | 252 kts | 39° |
| 2026-04-22 18:18 | 46.45598 | 6.70083 | 20961 ft | 251 kts | 44° |
| 2026-04-22 18:18 | 46.46688 | 6.72048 | 20585 ft | 249 kts | 44° |
| 2026-04-22 18:18 | 46.47756 | 6.73968 | 20217 ft | 247 kts | 45° |
| 2026-04-22 18:18 | 46.48834 | 6.75899 | 19844 ft | 245 kts | 45° |
| 2026-04-22 18:19 | 46.49901 | 6.77812 | 19481 ft | 243 kts | 46° |
| 2026-04-22 18:19 | 46.50965 | 6.79722 | 19120 ft | 242 kts | 47° |
| 2026-04-22 18:19 | 46.52022 | 6.81623 | 18770 ft | 241 kts | 47° |
| 2026-04-22 18:19 | 46.53072 | 6.83512 | 18408 ft | 238 kts | 48° |
| 2026-04-22 18:20 | 46.54097 | 6.85360 | 18002 ft | 232 kts | 48° |
| 2026-04-22 18:20 | 46.55095 | 6.87160 | 17601 ft | 226 kts | 49° |
| 2026-04-22 18:20 | 46.56074 | 6.88922 | 17202 ft | 222 kts | 49° |
| 2026-04-22 18:20 | 46.57042 | 6.90662 | 16805 ft | 219 kts | 48° |
| 2026-04-22 18:21 | 46.57978 | 6.92339 | 16502 ft | 213 kts | 49° |
| 2026-04-22 18:21 | 46.58898 | 6.93993 | 16221 ft | 208 kts | 49° |
| 2026-04-22 18:21 | 46.59792 | 6.95603 | 15937 ft | 201 kts | 49° |
| 2026-04-22 18:21 | 46.60652 | 6.97150 | 15655 ft | 191 kts | 49° |
| 2026-04-22 18:22 | 46.61465 | 6.98616 | 15375 ft | 180 kts | 49° |
| 2026-04-22 18:22 | 46.62233 | 6.99998 | 15099 ft | 171 kts | 49° |
| 2026-04-22 18:22 | 46.62969 | 7.01323 | 14828 ft | 166 kts | 49° |
| 2026-04-22 18:22 | 46.63687 | 7.02615 | 14554 ft | 162 kts | 50° |
| 2026-04-22 18:23 | 46.64388 | 7.03878 | 14287 ft | 162 kts | 50° |
| 2026-04-22 18:23 | 46.65146 | 7.05238 | 14037 ft | 183 kts | 50° |
| 2026-04-22 18:23 | 46.65982 | 7.06746 | 13762 ft | 199 kts | 51° |
| 2026-04-22 18:24 | 46.67815 | 7.10062 | 13183 ft | 219 kts | 51° |
| 2026-04-22 18:24 | 46.68770 | 7.11790 | 12895 ft | 224 kts | 51° |
| 2026-04-22 18:24 | 46.70755 | 7.15382 | 12326 ft | 229 kts | 51° |
| 2026-04-22 18:25 | 46.71758 | 7.17200 | 12046 ft | 231 kts | 51° |
| 2026-04-22 18:25 | 46.72769 | 7.19032 | 11755 ft | 232 kts | 51° |
| 2026-04-22 18:25 | 46.73780 | 7.20867 | 11486 ft | 232 kts | 51° |
| 2026-04-22 18:26 | 46.75749 | 7.24446 | 10935 ft | 219 kts | 51° |
| 2026-04-22 18:26 | 46.76691 | 7.26159 | 10667 ft | 215 kts | 51° |
| 2026-04-22 18:26 | 46.77605 | 7.27819 | 10542 ft | 205 kts | 51° |
| 2026-04-22 18:26 | 46.78466 | 7.29387 | 10418 ft | 197 kts | 51° |
| 2026-04-22 18:27 | 46.79301 | 7.30910 | 10295 ft | 186 kts | 51° |
| 2026-04-22 18:27 | 46.80091 | 7.32349 | 10173 ft | 181 kts | 51° |
| 2026-04-22 18:27 | 46.80884 | 7.33793 | 10046 ft | 183 kts | 51° |
| 2026-04-22 18:27 | 46.81683 | 7.35249 | 9921 ft | 184 kts | 52° |
| 2026-04-22 18:28 | 46.82484 | 7.36712 | 9786 ft | 185 kts | 52° |
| 2026-04-22 18:28 | 46.83279 | 7.38165 | 9657 ft | 185 kts | 52° |
| 2026-04-22 18:28 | 46.84137 | 7.39557 | 9526 ft | 184 kts | 37° |
| 2026-04-22 18:28 | 46.85331 | 7.40186 | 9415 ft | 185 kts | 4° |
| 2026-04-22 18:29 | 46.86578 | 7.39785 | 9300 ft | 187 kts | 331° |
| 2026-04-22 18:29 | 46.87644 | 7.38714 | 9180 ft | 186 kts | 324° |
| 2026-04-22 18:29 | 46.88695 | 7.37594 | 9046 ft | 187 kts | 326° |
| 2026-04-22 18:29 | 46.89755 | 7.36483 | 8916 ft | 188 kts | 326° |
| 2026-04-22 18:30 | 46.90821 | 7.35369 | 8789 ft | 189 kts | 326° |
| 2026-04-22 18:30 | 46.92949 | 7.33140 | 8362 ft | 184 kts | 327° |
| 2026-04-22 18:30 | 46.93929 | 7.32010 | 8107 ft | 175 kts | 321° |
| 2026-04-22 18:31 | 46.94856 | 7.30888 | 7851 ft | 171 kts | 323° |
| 2026-04-22 18:31 | 46.95779 | 7.29803 | 7603 ft | 170 kts | 324° |
| 2026-04-22 18:31 | 46.96690 | 7.28715 | 7353 ft | 168 kts | 324° |
| 2026-04-22 18:31 | 46.97593 | 7.27628 | 7105 ft | 167 kts | 324° |
| 2026-04-22 18:32 | 46.98490 | 7.26549 | 6864 ft | 167 kts | 326° |
| 2026-04-22 18:32 | 46.99443 | 7.25630 | 6570 ft | 161 kts | 347° |
| 2026-04-22 18:32 | 47.00516 | 7.25606 | 6178 ft | 151 kts | 21° |
| 2026-04-22 18:32 | 47.01377 | 7.26383 | 5796 ft | 145 kts | 50° |
| 2026-04-22 18:33 | 47.02029 | 7.27515 | 5417 ft | 145 kts | 53° |
| 2026-04-22 18:33 | 47.02668 | 7.28636 | 5068 ft | 146 kts | 53° |
| 2026-04-22 18:33 | 47.03310 | 7.29759 | 4774 ft | 140 kts | 53° |
| 2026-04-22 18:33 | 47.03923 | 7.30829 | 4511 ft | 133 kts | 52° |
| 2026-04-22 18:34 | 47.04410 | 7.31924 | 4247 ft | 127 kts | 79° |
| 2026-04-22 18:34 | 47.04136 | 7.33131 | 4058 ft | 127 kts | 112° |
| 2026-04-22 18:34 | 47.03717 | 7.34185 | 4049 ft | 112 kts | 112° |
| 2026-04-22 18:34 | 47.03248 | 7.35009 | 4055 ft | 101 kts | 124° |
| 2026-04-22 18:35 | 47.02768 | 7.35693 | 4023 ft | 92 kts | 124° |
| 2026-04-22 18:35 | 47.02306 | 7.36310 | 4015 ft | 87 kts | 125° |
| 2026-04-22 18:35 | 47.01862 | 7.36884 | 4015 ft | 84 kts | 125° |
| 2026-04-22 18:35 | 47.01430 | 7.37436 | 4013 ft | 81 kts | 125° |
| 2026-04-22 18:36 | 47.01023 | 7.37951 | 4014 ft | 76 kts | 124° |
| 2026-04-22 18:36 | 47.00611 | 7.38463 | 4016 ft | 77 kts | 125° |
| 2026-04-22 18:36 | 47.00197 | 7.38975 | 4019 ft | 80 kts | 127° |
| 2026-04-22 18:36 | 46.99769 | 7.39496 | 4018 ft | 79 kts | 126° |
| 2026-04-22 18:37 | 46.99355 | 7.40004 | 4017 ft | 77 kts | 126° |
| 2026-04-22 18:37 | 46.98944 | 7.40506 | 4015 ft | 77 kts | 127° |
| 2026-04-22 18:37 | 46.98667 | 7.40847 | 4016 ft | 77 kts | 126° |
| 2026-04-22 18:37 | 46.98110 | 7.41527 | 3870 ft | 79 kts | 126° |
| 2026-04-22 18:38 | 46.97690 | 7.42041 | 3728 ft | 78 kts | 126° |
| 2026-04-22 18:38 | 46.97278 | 7.42547 | 3590 ft | 76 kts | 125° |
| 2026-04-22 18:38 | 46.96869 | 7.43046 | 3455 ft | 75 kts | 124° |
| 2026-04-22 18:39 | 46.96049 | 7.44056 | 3181 ft | 80 kts | 126° |
| 2026-04-22 18:39 | 46.95607 | 7.44591 | 3004 ft | 79 kts | 126° |
| 2026-04-22 18:39 | 46.95192 | 7.45099 | 2856 ft | 77 kts | 127° |
| 2026-04-22 18:39 | 46.94821 | 7.45550 | 2729 ft | 69 kts | 128° |
| 2026-04-22 18:40 | 46.94565 | 7.45868 | 2639 ft | 74 kts | 131° |
| 2026-04-22 18:40 | 46.93997 | 7.46563 | 2437 ft | 85 kts | 134° |
| 2026-04-22 18:40 | 46.93533 | 7.47128 | 2282 ft | 88 kts | 133° |
| 2026-04-22 18:40 | 46.93054 | 7.47717 | 2123 ft | 90 kts | 133° |
| 2026-04-22 18:41 | 46.92740 | 7.48098 | 2021 ft | 86 kts | 133° |
| 2026-04-22 18:41 | 46.92293 | 7.48646 | 1869 ft | 82 kts | 133° |
| 2026-04-22 18:41 | 46.91740 | 7.49316 | 1710 ft | 74 kts | 136° |
| 2026-04-22 18:41 | 46.91487 | 7.49621 | 1675 ft | 65 kts | 134° |
| 2026-04-22 18:42 | 46.91219 | 7.49965 | 1679 ft | 23 kts | 140° |
| 2026-04-22 18:42 | 46.91091 | 7.50120 | 1684 ft | 14 kts | 146° |
| 2026-04-22 18:42 | 46.91087 | 7.50197 | 1682 ft | 13 kts | 50° |
| 2026-04-22 18:42 | 46.91101 | 7.50221 | 1679 ft | 0 kts | 49° |
| 2026-04-22 18:43 | 46.91101 | 7.50222 | 1679 ft | 1 kts | 47° |
| 2026-04-22 18:44 | 46.91135 | 7.50205 | 1681 ft | 10 kts | 316° |
| 2026-04-22 18:44 | 46.91205 | 7.50116 | 1678 ft | 14 kts | 320° |
| 2026-04-22 18:44 | 46.91245 | 7.50065 | 1682 ft | 0 kts | 318° |
| 2026-04-22 18:44 | 46.91246 | 7.50064 | 1682 ft | 1 kts | 323° |
| 2026-04-22 18:45 | 46.91259 | 7.50070 | 1680 ft | 4 kts | 64° |
| 2026-04-22 18:45 | 46.91271 | 7.50107 | 1677 ft | 0 kts | 64° |